sensor_id;sensor_type;location;lat;lon;timestamp;P1;durP1;ratioP1;P2;durP2;ratioP2
26478;SDS011;14163;-26.142;27.992;2022-07-15T00:01:15;18.90;;;14.30;;
26478;SDS011;14163;-26.142;27.992;2022-07-15T00:03:44;21.30;;;14.53;;
26478;SDS011;14163;-26.142;27.992;2022-07-15T00:06:13;18.07;;;13.43;;
26478;SDS011;14163;-26.142;27.992;2022-07-15T00:08:43;19.13;;;14.60;;
26478;SDS011;14163;-26.142;27.992;2022-07-15T00:11:12;20.27;;;14.13;;
26478;SDS011;14163;-26.142;27.992;2022-07-15T00:13:43;19.90;;;13.13;;
26478;SDS011;14163;-26.142;27.992;2022-07-15T00:16:12;16.77;;;13.23;;
26478;SDS011;14163;-26.142;27.992;2022-07-15T00:18:41;17.53;;;13.77;;
26478;SDS011;14163;-26.142;27.992;2022-07-15T00:21:10;14.70;;;13.20;;
26478;SDS011;14163;-26.142;27.992;2022-07-15T00:23:40;19.03;;;12.90;;
26478;SDS011;14163;-26.142;27.992;2022-07-15T00:26:09;16.53;;;13.80;;
26478;SDS011;14163;-26.142;27.992;2022-07-15T00:28:38;13.73;;;12.27;;
26478;SDS011;14163;-26.142;27.992;2022-07-15T00:31:09;20.23;;;13.93;;
26478;SDS011;14163;-26.142;27.992;2022-07-15T00:33:38;15.83;;;12.43;;
26478;SDS011;14163;-26.142;27.992;2022-07-15T00:36:08;13.57;;;12.10;;
26478;SDS011;14163;-26.142;27.992;2022-07-15T00:38:37;14.20;;;12.03;;
26478;SDS011;14163;-26.142;27.992;2022-07-15T00:41:06;20.80;;;12.80;;
26478;SDS011;14163;-26.142;27.992;2022-07-15T00:43:35;14.60;;;11.53;;
26478;SDS011;14163;-26.142;27.992;2022-07-15T00:46:04;16.30;;;11.40;;
26478;SDS011;14163;-26.142;27.992;2022-07-15T00:48:35;12.57;;;11.20;;
26478;SDS011;14163;-26.142;27.992;2022-07-15T00:51:04;15.93;;;11.10;;
26478;SDS011;14163;-26.142;27.992;2022-07-15T00:53:34;14.70;;;10.17;;
26478;SDS011;14163;-26.142;27.992;2022-07-15T00:56:07;12.23;;;10.60;;
26478;SDS011;14163;-26.142;27.992;2022-07-15T00:58:37;14.33;;;11.00;;
26478;SDS011;14163;-26.142;27.992;2022-07-15T01:01:07;14.40;;;11.00;;
26478;SDS011;14163;-26.142;27.992;2022-07-15T01:03:39;14.70;;;11.10;;
26478;SDS011;14163;-26.142;27.992;2022-07-15T01:06:09;11.97;;;10.73;;
26478;SDS011;14163;-26.142;27.992;2022-07-15T01:08:38;15.57;;;11.43;;
26478;SDS011;14163;-26.142;27.992;2022-07-15T01:11:07;15.07;;;11.40;;
26478;SDS011;14163;-26.142;27.992;2022-07-15T01:13:37;16.83;;;10.87;;
26478;SDS011;14163;-26.142;27.992;2022-07-15T01:16:06;16.80;;;10.83;;
26478;SDS011;14163;-26.142;27.992;2022-07-15T01:18:35;10.90;;;9.80;;
26478;SDS011;14163;-26.142;27.992;2022-07-15T01:21:06;16.07;;;11.10;;
26478;SDS011;14163;-26.142;27.992;2022-07-15T01:23:35;14.73;;;11.57;;
26478;SDS011;14163;-26.142;27.992;2022-07-15T01:26:08;13.10;;;11.80;;
26478;SDS011;14163;-26.142;27.992;2022-07-15T01:28:38;17.43;;;11.23;;
26478;SDS011;14163;-26.142;27.992;2022-07-15T01:31:07;15.80;;;11.30;;
26478;SDS011;14163;-26.142;27.992;2022-07-15T01:33:37;12.67;;;10.13;;
26478;SDS011;14163;-26.142;27.992;2022-07-15T01:36:08;18.20;;;10.00;;
26478;SDS011;14163;-26.142;27.992;2022-07-15T01:38:37;13.43;;;10.07;;
26478;SDS011;14163;-26.142;27.992;2022-07-15T01:41:06;14.57;;;10.60;;
26478;SDS011;14163;-26.142;27.992;2022-07-15T01:43:35;13.57;;;10.60;;
26478;SDS011;14163;-26.142;27.992;2022-07-15T01:46:04;11.50;;;10.30;;
26478;SDS011;14163;-26.142;27.992;2022-07-15T01:48:34;13.70;;;10.20;;
26478;SDS011;14163;-26.142;27.992;2022-07-15T01:51:22;16.60;;;10.50;;
26478;SDS011;14163;-26.142;27.992;2022-07-15T01:53:51;13.67;;;10.20;;
26478;SDS011;14163;-26.142;27.992;2022-07-15T01:56:20;15.00;;;10.33;;
26478;SDS011;14163;-26.142;27.992;2022-07-15T01:58:49;10.80;;;9.40;;
26478;SDS011;14163;-26.142;27.992;2022-07-15T02:01:18;15.63;;;10.50;;
26478;SDS011;14163;-26.142;27.992;2022-07-15T02:03:47;15.30;;;10.63;;
26478;SDS011;14163;-26.142;27.992;2022-07-15T02:06:16;13.30;;;10.53;;
26478;SDS011;14163;-26.142;27.992;2022-07-15T02:08:47;16.07;;;10.33;;
26478;SDS011;14163;-26.142;27.992;2022-07-15T02:11:16;13.43;;;9.13;;
26478;SDS011;14163;-26.142;27.992;2022-07-15T02:13:46;13.27;;;10.70;;
26478;SDS011;14163;-26.142;27.992;2022-07-15T02:16:15;10.50;;;9.40;;
26478;SDS011;14163;-26.142;27.992;2022-07-15T02:18:44;12.80;;;9.70;;
26478;SDS011;14163;-26.142;27.992;2022-07-15T02:21:14;12.93;;;10.27;;
26478;SDS011;14163;-26.142;27.992;2022-07-15T02:23:43;17.03;;;10.83;;
26478;SDS011;14163;-26.142;27.992;2022-07-15T02:26:14;13.30;;;10.03;;
26478;SDS011;14163;-26.142;27.992;2022-07-15T02:28:43;14.70;;;10.53;;
26478;SDS011;14163;-26.142;27.992;2022-07-15T02:31:12;14.43;;;9.73;;
26478;SDS011;14163;-26.142;27.992;2022-07-15T02:33:41;14.80;;;10.93;;
26478;SDS011;14163;-26.142;27.992;2022-07-15T02:36:11;11.00;;;9.90;;
26478;SDS011;14163;-26.142;27.992;2022-07-15T02:38:40;19.50;;;11.20;;
26478;SDS011;14163;-26.142;27.992;2022-07-15T02:41:09;11.30;;;9.80;;
26478;SDS011;14163;-26.142;27.992;2022-07-15T02:43:40;11.97;;;10.73;;
26478;SDS011;14163;-26.142;27.992;2022-07-15T02:46:10;14.27;;;10.53;;
26478;SDS011;14163;-26.142;27.992;2022-07-15T02:48:39;13.70;;;10.43;;
26478;SDS011;14163;-26.142;27.992;2022-07-15T02:51:09;17.83;;;13.00;;
26478;SDS011;14163;-26.142;27.992;2022-07-15T02:53:38;16.50;;;12.43;;
26478;SDS011;14163;-26.142;27.992;2022-07-15T02:56:07;13.13;;;11.80;;
26478;SDS011;14163;-26.142;27.992;2022-07-15T02:58:36;14.83;;;12.60;;
26478;SDS011;14163;-26.142;27.992;2022-07-15T03:01:07;16.40;;;13.43;;
26478;SDS011;14163;-26.142;27.992;2022-07-15T03:03:36;15.13;;;13.43;;
26478;SDS011;14163;-26.142;27.992;2022-07-15T03:06:06;14.90;;;12.80;;
26478;SDS011;14163;-26.142;27.992;2022-07-15T03:08:35;17.17;;;14.23;;
26478;SDS011;14163;-26.142;27.992;2022-07-15T03:11:05;17.83;;;15.10;;
26478;SDS011;14163;-26.142;27.992;2022-07-15T03:13:34;21.03;;;17.10;;
26478;SDS011;14163;-26.142;27.992;2022-07-15T03:16:03;21.27;;;17.07;;
26478;SDS011;14163;-26.142;27.992;2022-07-15T03:18:34;24.07;;;18.10;;
26478;SDS011;14163;-26.142;27.992;2022-07-15T03:21:03;26.30;;;18.60;;
26478;SDS011;14163;-26.142;27.992;2022-07-15T03:23:33;24.33;;;19.27;;
26478;SDS011;14163;-26.142;27.992;2022-07-15T04:08:33;23.47;;;19.30;;
26478;SDS011;14163;-26.142;27.992;2022-07-15T04:11:02;25.20;;;17.37;;
26478;SDS011;14163;-26.142;27.992;2022-07-15T04:13:31;21.57;;;17.50;;
26478;SDS011;14163;-26.142;27.992;2022-07-15T04:16:00;21.20;;;17.63;;
26478;SDS011;14163;-26.142;27.992;2022-07-15T04:18:29;25.73;;;18.83;;
26478;SDS011;14163;-26.142;27.992;2022-07-15T04:20:58;21.00;;;17.80;;
26478;SDS011;14163;-26.142;27.992;2022-07-15T04:23:28;24.87;;;18.30;;
26478;SDS011;14163;-26.142;27.992;2022-07-15T04:25:59;22.13;;;17.30;;
26478;SDS011;14163;-26.142;27.992;2022-07-15T04:28:28;25.00;;;18.73;;
26478;SDS011;14163;-26.142;27.992;2022-07-15T04:30:57;21.90;;;17.60;;
26478;SDS011;14163;-26.142;27.992;2022-07-15T04:33:26;21.57;;;17.93;;
26478;SDS011;14163;-26.142;27.992;2022-07-15T04:35:56;30.10;;;18.30;;
26478;SDS011;14163;-26.142;27.992;2022-07-15T04:38:25;22.27;;;17.50;;
26478;SDS011;14163;-26.142;27.992;2022-07-15T04:40:54;23.60;;;17.17;;
26478;SDS011;14163;-26.142;27.992;2022-07-15T04:43:25;22.83;;;17.83;;
26478;SDS011;14163;-26.142;27.992;2022-07-15T04:45:54;20.40;;;17.60;;
26478;SDS011;14163;-26.142;27.992;2022-07-15T04:48:23;23.50;;;17.77;;
26478;SDS011;14163;-26.142;27.992;2022-07-15T04:51:09;20.80;;;17.40;;
26478;SDS011;14163;-26.142;27.992;2022-07-15T04:53:38;21.63;;;16.63;;
26478;SDS011;14163;-26.142;27.992;2022-07-15T04:56:07;20.70;;;17.23;;
26478;SDS011;14163;-26.142;27.992;2022-07-15T04:58:38;20.50;;;16.83;;
26478;SDS011;14163;-26.142;27.992;2022-07-15T05:01:08;23.13;;;16.80;;
26478;SDS011;14163;-26.142;27.992;2022-07-15T05:03:37;23.67;;;18.33;;
26478;SDS011;14163;-26.142;27.992;2022-07-15T05:06:07;21.63;;;17.77;;
26478;SDS011;14163;-26.142;27.992;2022-07-15T05:08:37;22.17;;;16.17;;
26478;SDS011;14163;-26.142;27.992;2022-07-15T05:11:06;20.87;;;15.90;;
26478;SDS011;14163;-26.142;27.992;2022-07-15T05:13:36;18.87;;;15.13;;
26478;SDS011;14163;-26.142;27.992;2022-07-15T05:16:07;21.87;;;15.90;;
26478;SDS011;14163;-26.142;27.992;2022-07-15T05:18:36;22.00;;;15.77;;
26478;SDS011;14163;-26.142;27.992;2022-07-15T05:21:06;35.07;;;16.80;;
26478;SDS011;14163;-26.142;27.992;2022-07-15T05:23:35;27.53;;;17.17;;
26478;SDS011;14163;-26.142;27.992;2022-07-15T05:26:06;25.57;;;15.47;;
26478;SDS011;14163;-26.142;27.992;2022-07-15T05:28:38;20.90;;;16.30;;
26478;SDS011;14163;-26.142;27.992;2022-07-15T05:31:07;23.87;;;16.17;;
26478;SDS011;14163;-26.142;27.992;2022-07-15T05:33:37;21.93;;;15.97;;
26478;SDS011;14163;-26.142;27.992;2022-07-15T05:36:10;24.33;;;15.87;;
26478;SDS011;14163;-26.142;27.992;2022-07-15T05:38:40;17.93;;;15.20;;
26478;SDS011;14163;-26.142;27.992;2022-07-15T05:41:09;19.30;;;15.33;;
26478;SDS011;14163;-26.142;27.992;2022-07-15T05:43:40;19.70;;;14.30;;
26478;SDS011;14163;-26.142;27.992;2022-07-15T05:46:09;19.47;;;15.23;;
26478;SDS011;14163;-26.142;27.992;2022-07-15T05:48:39;19.30;;;15.00;;
26478;SDS011;14163;-26.142;27.992;2022-07-15T05:51:08;19.47;;;16.03;;
26478;SDS011;14163;-26.142;27.992;2022-07-15T05:53:38;21.10;;;16.00;;
26478;SDS011;14163;-26.142;27.992;2022-07-15T05:56:07;22.90;;;16.30;;
26478;SDS011;14163;-26.142;27.992;2022-07-15T05:58:36;23.70;;;17.53;;
26478;SDS011;14163;-26.142;27.992;2022-07-15T06:01:07;21.43;;;16.83;;
26478;SDS011;14163;-26.142;27.992;2022-07-15T06:03:37;24.67;;;17.70;;
26478;SDS011;14163;-26.142;27.992;2022-07-15T06:06:06;26.27;;;17.37;;
26478;SDS011;14163;-26.142;27.992;2022-07-15T06:08:35;20.47;;;16.67;;
26478;SDS011;14163;-26.142;27.992;2022-07-15T06:11:04;21.87;;;16.60;;
26478;SDS011;14163;-26.142;27.992;2022-07-15T06:13:34;23.23;;;17.10;;
26478;SDS011;14163;-26.142;27.992;2022-07-15T06:16:04;19.40;;;17.00;;
26478;SDS011;14163;-26.142;27.992;2022-07-15T06:18:36;27.37;;;16.87;;
26478;SDS011;14163;-26.142;27.992;2022-07-15T06:21:05;19.10;;;16.40;;
26478;SDS011;14163;-26.142;27.992;2022-07-15T06:23:35;24.10;;;17.07;;
26478;SDS011;14163;-26.142;27.992;2022-07-15T06:26:04;19.50;;;17.50;;
26478;SDS011;14163;-26.142;27.992;2022-07-15T06:28:33;21.73;;;16.30;;
26478;SDS011;14163;-26.142;27.992;2022-07-15T06:31:02;23.03;;;16.60;;
26478;SDS011;14163;-26.142;27.992;2022-07-15T06:33:32;22.03;;;17.30;;
26478;SDS011;14163;-26.142;27.992;2022-07-15T06:36:03;21.93;;;17.90;;
26478;SDS011;14163;-26.142;27.992;2022-07-15T06:38:32;21.70;;;18.23;;
26478;SDS011;14163;-26.142;27.992;2022-07-15T06:41:01;30.13;;;18.37;;
26478;SDS011;14163;-26.142;27.992;2022-07-15T06:43:31;25.40;;;18.40;;
26478;SDS011;14163;-26.142;27.992;2022-07-15T06:46:00;22.00;;;18.20;;
26478;SDS011;14163;-26.142;27.992;2022-07-15T06:48:29;22.07;;;19.60;;
26478;SDS011;14163;-26.142;27.992;2022-07-15T06:50:58;23.67;;;18.60;;
26478;SDS011;14163;-26.142;27.992;2022-07-15T06:53:29;23.90;;;19.27;;
26478;SDS011;14163;-26.142;27.992;2022-07-15T06:55:58;26.83;;;19.60;;
26478;SDS011;14163;-26.142;27.992;2022-07-15T06:58:27;21.63;;;18.73;;
26478;SDS011;14163;-26.142;27.992;2022-07-15T07:00:56;22.20;;;18.70;;
26478;SDS011;14163;-26.142;27.992;2022-07-15T07:03:26;29.03;;;19.97;;
26478;SDS011;14163;-26.142;27.992;2022-07-15T07:05:55;24.60;;;19.43;;
26478;SDS011;14163;-26.142;27.992;2022-07-15T07:08:24;24.87;;;19.17;;
26478;SDS011;14163;-26.142;27.992;2022-07-15T07:10:55;25.07;;;19.83;;
26478;SDS011;14163;-26.142;27.992;2022-07-15T07:13:24;27.90;;;20.87;;
26478;SDS011;14163;-26.142;27.992;2022-07-15T07:15:53;26.60;;;19.97;;
26478;SDS011;14163;-26.142;27.992;2022-07-15T07:18:23;27.33;;;20.23;;
26478;SDS011;14163;-26.142;27.992;2022-07-15T07:20:52;25.07;;;19.07;;
26478;SDS011;14163;-26.142;27.992;2022-07-15T07:23:22;23.93;;;18.97;;
26478;SDS011;14163;-26.142;27.992;2022-07-15T07:25:52;24.07;;;18.90;;
26478;SDS011;14163;-26.142;27.992;2022-07-15T07:28:23;26.13;;;20.83;;
26478;SDS011;14163;-26.142;27.992;2022-07-15T07:30:52;22.37;;;18.93;;
26478;SDS011;14163;-26.142;27.992;2022-07-15T07:33:21;26.40;;;20.03;;
26478;SDS011;14163;-26.142;27.992;2022-07-15T07:35:50;24.50;;;19.73;;
26478;SDS011;14163;-26.142;27.992;2022-07-15T07:38:20;24.80;;;20.27;;
26478;SDS011;14163;-26.142;27.992;2022-07-15T07:40:49;27.13;;;21.03;;
26478;SDS011;14163;-26.142;27.992;2022-07-15T07:43:20;26.20;;;21.13;;
26478;SDS011;14163;-26.142;27.992;2022-07-15T07:45:49;24.17;;;21.03;;
26478;SDS011;14163;-26.142;27.992;2022-07-15T07:48:19;23.97;;;20.40;;
26478;SDS011;14163;-26.142;27.992;2022-07-15T07:50:48;27.33;;;21.03;;
26478;SDS011;14163;-26.142;27.992;2022-07-15T07:53:17;30.33;;;20.70;;
26478;SDS011;14163;-26.142;27.992;2022-07-15T07:55:47;25.90;;;21.37;;
26478;SDS011;14163;-26.142;27.992;2022-07-15T07:58:17;28.87;;;21.57;;
26478;SDS011;14163;-26.142;27.992;2022-07-15T08:00:48;28.10;;;21.20;;
26478;SDS011;14163;-26.142;27.992;2022-07-15T08:03:18;28.50;;;22.93;;
26478;SDS011;14163;-26.142;27.992;2022-07-15T08:05:48;31.20;;;22.37;;
26478;SDS011;14163;-26.142;27.992;2022-07-15T08:08:19;29.10;;;23.50;;
26478;SDS011;14163;-26.142;27.992;2022-07-15T08:10:51;28.73;;;24.20;;
26478;SDS011;14163;-26.142;27.992;2022-07-15T08:13:24;35.07;;;25.83;;
26478;SDS011;14163;-26.142;27.992;2022-07-15T08:15:54;47.53;;;38.13;;
26478;SDS011;14163;-26.142;27.992;2022-07-15T08:18:24;30.00;;;24.00;;
26478;SDS011;14163;-26.142;27.992;2022-07-15T08:20:54;48.97;;;36.67;;
26478;SDS011;14163;-26.142;27.992;2022-07-15T08:23:23;48.20;;;34.10;;
26478;SDS011;14163;-26.142;27.992;2022-07-15T08:25:52;35.83;;;27.90;;
26478;SDS011;14163;-26.142;27.992;2022-07-15T08:28:23;61.87;;;45.03;;
26478;SDS011;14163;-26.142;27.992;2022-07-15T08:30:52;59.23;;;39.37;;
26478;SDS011;14163;-26.142;27.992;2022-07-15T08:33:22;71.50;;;47.47;;
26478;SDS011;14163;-26.142;27.992;2022-07-15T08:35:51;53.43;;;37.73;;
26478;SDS011;14163;-26.142;27.992;2022-07-15T08:38:20;31.83;;;25.23;;
26478;SDS011;14163;-26.142;27.992;2022-07-15T08:40:50;40.33;;;30.30;;
26478;SDS011;14163;-26.142;27.992;2022-07-15T08:43:19;50.83;;;37.77;;
26478;SDS011;14163;-26.142;27.992;2022-07-15T08:45:50;43.90;;;35.00;;
26478;SDS011;14163;-26.142;27.992;2022-07-15T08:48:21;25.83;;;20.00;;
26478;SDS011;14163;-26.142;27.992;2022-07-15T08:50:54;36.23;;;26.83;;
26478;SDS011;14163;-26.142;27.992;2022-07-15T08:53:24;30.33;;;20.87;;
26478;SDS011;14163;-26.142;27.992;2022-07-15T08:55:56;32.33;;;23.60;;
26478;SDS011;14163;-26.142;27.992;2022-07-15T08:58:25;36.77;;;26.50;;
26478;SDS011;14163;-26.142;27.992;2022-07-15T09:00:56;35.30;;;25.10;;
26478;SDS011;14163;-26.142;27.992;2022-07-15T09:03:26;44.27;;;27.63;;
26478;SDS011;14163;-26.142;27.992;2022-07-15T09:05:55;33.83;;;25.20;;
26478;SDS011;14163;-26.142;27.992;2022-07-15T09:08:24;39.20;;;25.30;;
26478;SDS011;14163;-26.142;27.992;2022-07-15T09:10:54;36.80;;;27.50;;
26478;SDS011;14163;-26.142;27.992;2022-07-15T09:13:28;36.37;;;29.30;;
26478;SDS011;14163;-26.142;27.992;2022-07-15T09:16:00;37.63;;;28.10;;
26478;SDS011;14163;-26.142;27.992;2022-07-15T09:18:31;38.60;;;28.77;;
26478;SDS011;14163;-26.142;27.992;2022-07-15T09:21:02;37.40;;;28.73;;
26478;SDS011;14163;-26.142;27.992;2022-07-15T09:23:42;36.50;;;26.80;;
26478;SDS011;14163;-26.142;27.992;2022-07-15T09:26:21;31.27;;;26.40;;
26478;SDS011;14163;-26.142;27.992;2022-07-15T09:28:51;30.77;;;25.37;;
26478;SDS011;14163;-26.142;27.992;2022-07-15T09:31:32;38.90;;;28.37;;
26478;SDS011;14163;-26.142;27.992;2022-07-15T09:34:19;31.50;;;27.40;;
26478;SDS011;14163;-26.142;27.992;2022-07-15T09:36:49;30.47;;;26.70;;
26478;SDS011;14163;-26.142;27.992;2022-07-15T09:39:20;31.80;;;26.90;;
26478;SDS011;14163;-26.142;27.992;2022-07-15T09:41:50;35.80;;;26.70;;
26478;SDS011;14163;-26.142;27.992;2022-07-15T09:44:20;29.97;;;26.77;;
26478;SDS011;14163;-26.142;27.992;2022-07-15T09:46:53;32.20;;;24.90;;
26478;SDS011;14163;-26.142;27.992;2022-07-15T09:49:32;28.90;;;24.70;;
26478;SDS011;14163;-26.142;27.992;2022-07-15T09:52:04;30.37;;;25.93;;
26478;SDS011;14163;-26.142;27.992;2022-07-15T09:54:35;33.03;;;27.40;;
26478;SDS011;14163;-26.142;27.992;2022-07-15T09:57:05;33.67;;;29.67;;
26478;SDS011;14163;-26.142;27.992;2022-07-15T12:07:04;21.60;;;17.50;;
26478;SDS011;14163;-26.142;27.992;2022-07-15T12:09:39;24.73;;;18.37;;
26478;SDS011;14163;-26.142;27.992;2022-07-15T12:12:09;23.07;;;18.63;;
26478;SDS011;14163;-26.142;27.992;2022-07-15T12:14:38;20.13;;;18.03;;
26478;SDS011;14163;-26.142;27.992;2022-07-15T12:17:08;27.60;;;18.47;;
26478;SDS011;14163;-26.142;27.992;2022-07-15T12:19:37;23.33;;;19.77;;
26478;SDS011;14163;-26.142;27.992;2022-07-15T12:22:09;27.00;;;19.17;;
26478;SDS011;14163;-26.142;27.992;2022-07-15T12:24:39;19.40;;;17.30;;
26478;SDS011;14163;-26.142;27.992;2022-07-15T12:27:09;23.30;;;18.20;;
26478;SDS011;14163;-26.142;27.992;2022-07-15T12:29:39;23.33;;;17.47;;
26478;SDS011;14163;-26.142;27.992;2022-07-15T12:32:10;19.70;;;17.70;;
26478;SDS011;14163;-26.142;27.992;2022-07-15T12:34:50;21.80;;;19.00;;
26478;SDS011;14163;-26.142;27.992;2022-07-15T12:37:23;24.80;;;20.40;;
26478;SDS011;14163;-26.142;27.992;2022-07-15T12:39:55;25.77;;;19.50;;
26478;SDS011;14163;-26.142;27.992;2022-07-15T12:42:25;25.57;;;19.53;;
26478;SDS011;14163;-26.142;27.992;2022-07-15T12:45:08;25.90;;;19.97;;
26478;SDS011;14163;-26.142;27.992;2022-07-15T12:50:26;24.63;;;19.20;;
26478;SDS011;14163;-26.142;27.992;2022-07-15T12:52:58;23.00;;;20.70;;
26478;SDS011;14163;-26.142;27.992;2022-07-15T12:55:28;22.00;;;19.23;;
26478;SDS011;14163;-26.142;27.992;2022-07-15T12:58:04;26.63;;;20.03;;
26478;SDS011;14163;-26.142;27.992;2022-07-15T13:00:35;27.03;;;20.50;;
26478;SDS011;14163;-26.142;27.992;2022-07-15T13:03:06;26.37;;;20.10;;
26478;SDS011;14163;-26.142;27.992;2022-07-15T13:05:37;26.77;;;19.60;;
26478;SDS011;14163;-26.142;27.992;2022-07-15T13:08:10;26.50;;;19.20;;
26478;SDS011;14163;-26.142;27.992;2022-07-15T13:10:40;24.30;;;21.20;;
26478;SDS011;14163;-26.142;27.992;2022-07-15T13:13:11;27.20;;;21.17;;
26478;SDS011;14163;-26.142;27.992;2022-07-15T13:15:41;28.07;;;19.73;;
26478;SDS011;14163;-26.142;27.992;2022-07-15T13:18:11;27.43;;;20.07;;
26478;SDS011;14163;-26.142;27.992;2022-07-15T13:20:40;26.93;;;20.27;;
26478;SDS011;14163;-26.142;27.992;2022-07-15T13:23:12;26.03;;;19.93;;
26478;SDS011;14163;-26.142;27.992;2022-07-15T13:25:41;24.97;;;20.30;;
26478;SDS011;14163;-26.142;27.992;2022-07-15T13:28:11;22.20;;;20.00;;
26478;SDS011;14163;-26.142;27.992;2022-07-15T13:30:40;23.00;;;17.87;;
26478;SDS011;14163;-26.142;27.992;2022-07-15T13:33:10;24.80;;;19.80;;
26478;SDS011;14163;-26.142;27.992;2022-07-15T13:35:40;24.90;;;20.50;;
26478;SDS011;14163;-26.142;27.992;2022-07-15T13:38:09;25.87;;;20.50;;
26478;SDS011;14163;-26.142;27.992;2022-07-15T13:40:40;21.17;;;18.97;;
26478;SDS011;14163;-26.142;27.992;2022-07-15T13:43:09;22.60;;;19.40;;
26478;SDS011;14163;-26.142;27.992;2022-07-15T13:45:39;21.97;;;19.63;;
26478;SDS011;14163;-26.142;27.992;2022-07-15T13:48:08;21.80;;;18.00;;
26478;SDS011;14163;-26.142;27.992;2022-07-15T13:50:37;20.17;;;17.97;;
26478;SDS011;14163;-26.142;27.992;2022-07-15T13:53:25;21.50;;;19.20;;
26478;SDS011;14163;-26.142;27.992;2022-07-15T13:55:54;20.53;;;18.33;;
26478;SDS011;14163;-26.142;27.992;2022-07-15T13:58:24;27.97;;;17.77;;
26478;SDS011;14163;-26.142;27.992;2022-07-15T14:00:53;22.10;;;17.47;;
26478;SDS011;14163;-26.142;27.992;2022-07-15T14:03:22;18.53;;;16.50;;
26478;SDS011;14163;-26.142;27.992;2022-07-15T14:05:51;21.17;;;18.00;;
26478;SDS011;14163;-26.142;27.992;2022-07-15T14:08:21;31.50;;;25.17;;
26478;SDS011;14163;-26.142;27.992;2022-07-15T14:10:52;21.00;;;16.73;;
26478;SDS011;14163;-26.142;27.992;2022-07-15T14:13:21;20.53;;;18.30;;
26478;SDS011;14163;-26.142;27.992;2022-07-15T14:15:50;24.20;;;15.60;;
26478;SDS011;14163;-26.142;27.992;2022-07-15T14:18:19;19.67;;;15.97;;
26478;SDS011;14163;-26.142;27.992;2022-07-15T14:21:08;16.20;;;14.57;;
26478;SDS011;14163;-26.142;27.992;2022-07-15T14:23:37;17.90;;;15.80;;
26478;SDS011;14163;-26.142;27.992;2022-07-15T14:26:08;17.70;;;15.80;;
26478;SDS011;14163;-26.142;27.992;2022-07-15T14:28:38;17.67;;;15.40;;
26478;SDS011;14163;-26.142;27.992;2022-07-15T14:31:08;22.10;;;14.83;;
26478;SDS011;14163;-26.142;27.992;2022-07-15T14:33:38;15.60;;;13.93;;
26478;SDS011;14163;-26.142;27.992;2022-07-15T14:36:08;17.43;;;14.70;;
26478;SDS011;14163;-26.142;27.992;2022-07-15T14:38:38;16.63;;;13.60;;
26478;SDS011;14163;-26.142;27.992;2022-07-15T14:41:09;15.07;;;13.60;;
26478;SDS011;14163;-26.142;27.992;2022-07-15T14:43:38;16.17;;;13.20;;
26478;SDS011;14163;-26.142;27.992;2022-07-15T14:46:07;17.97;;;16.27;;
26478;SDS011;14163;-26.142;27.992;2022-07-15T14:48:36;15.70;;;14.03;;
26478;SDS011;14163;-26.142;27.992;2022-07-15T14:51:05;16.70;;;14.80;;
26478;SDS011;14163;-26.142;27.992;2022-07-15T14:53:35;16.17;;;14.47;;
26478;SDS011;14163;-26.142;27.992;2022-07-15T14:56:04;16.93;;;15.10;;
26478;SDS011;14163;-26.142;27.992;2022-07-15T14:58:35;15.27;;;13.83;;
26478;SDS011;14163;-26.142;27.992;2022-07-15T15:01:05;16.03;;;13.37;;
26478;SDS011;14163;-26.142;27.992;2022-07-15T15:03:34;15.70;;;14.00;;
26478;SDS011;14163;-26.142;27.992;2022-07-15T15:06:03;15.30;;;13.83;;
26478;SDS011;14163;-26.142;27.992;2022-07-15T15:08:32;16.30;;;13.17;;
26478;SDS011;14163;-26.142;27.992;2022-07-15T15:11:02;15.60;;;14.20;;
26478;SDS011;14163;-26.142;27.992;2022-07-15T15:13:31;16.33;;;13.60;;
26478;SDS011;14163;-26.142;27.992;2022-07-15T15:16:02;19.67;;;14.93;;
26478;SDS011;14163;-26.142;27.992;2022-07-15T15:18:32;17.97;;;16.17;;
26478;SDS011;14163;-26.142;27.992;2022-07-15T15:21:01;17.23;;;14.43;;
26478;SDS011;14163;-26.142;27.992;2022-07-15T15:23:30;16.20;;;14.60;;
26478;SDS011;14163;-26.142;27.992;2022-07-15T15:25:59;20.33;;;15.83;;
26478;SDS011;14163;-26.142;27.992;2022-07-15T15:28:45;16.60;;;14.00;;
26478;SDS011;14163;-26.142;27.992;2022-07-15T15:31:16;18.93;;;16.90;;
26478;SDS011;14163;-26.142;27.992;2022-07-15T15:33:45;16.33;;;14.63;;
26478;SDS011;14163;-26.142;27.992;2022-07-15T15:36:14;16.83;;;15.17;;
26478;SDS011;14163;-26.142;27.992;2022-07-15T15:38:44;18.07;;;16.10;;
26478;SDS011;14163;-26.142;27.992;2022-07-15T15:41:13;16.70;;;15.00;;
26478;SDS011;14163;-26.142;27.992;2022-07-15T15:43:42;20.63;;;16.30;;
26478;SDS011;14163;-26.142;27.992;2022-07-15T15:46:11;17.00;;;15.20;;
26478;SDS011;14163;-26.142;27.992;2022-07-15T15:48:42;27.70;;;16.93;;
26478;SDS011;14163;-26.142;27.992;2022-07-15T15:51:11;20.60;;;16.57;;
26478;SDS011;14163;-26.142;27.992;2022-07-15T15:53:40;17.67;;;15.20;;
26478;SDS011;14163;-26.142;27.992;2022-07-15T15:56:09;19.53;;;15.90;;
26478;SDS011;14163;-26.142;27.992;2022-07-15T15:58:38;20.60;;;15.90;;
26478;SDS011;14163;-26.142;27.992;2022-07-15T16:01:08;18.60;;;15.53;;
26478;SDS011;14163;-26.142;27.992;2022-07-15T16:03:37;20.97;;;16.13;;
26478;SDS011;14163;-26.142;27.992;2022-07-15T16:06:08;19.07;;;17.33;;
26478;SDS011;14163;-26.142;27.992;2022-07-15T16:08:37;23.00;;;17.73;;
26478;SDS011;14163;-26.142;27.992;2022-07-15T16:11:06;26.20;;;18.67;;
26478;SDS011;14163;-26.142;27.992;2022-07-15T16:13:35;19.90;;;17.90;;
26478;SDS011;14163;-26.142;27.992;2022-07-15T16:16:05;20.67;;;17.30;;
26478;SDS011;14163;-26.142;27.992;2022-07-15T16:18:34;18.80;;;16.83;;
26478;SDS011;14163;-26.142;27.992;2022-07-15T16:21:04;18.70;;;15.47;;
26478;SDS011;14163;-26.142;27.992;2022-07-15T16:23:35;17.70;;;16.00;;
26478;SDS011;14163;-26.142;27.992;2022-07-15T16:26:03;19.63;;;17.20;;
26478;SDS011;14163;-26.142;27.992;2022-07-15T16:28:32;19.50;;;17.53;;
26478;SDS011;14163;-26.142;27.992;2022-07-15T16:31:01;19.60;;;17.50;;
26478;SDS011;14163;-26.142;27.992;2022-07-15T16:33:30;24.67;;;19.27;;
26478;SDS011;14163;-26.142;27.992;2022-07-15T16:35:59;19.27;;;17.30;;
26478;SDS011;14163;-26.142;27.992;2022-07-15T16:38:29;18.17;;;16.20;;
26478;SDS011;14163;-26.142;27.992;2022-07-15T16:40:59;22.00;;;16.80;;
26478;SDS011;14163;-26.142;27.992;2022-07-15T16:43:29;19.20;;;16.30;;
26478;SDS011;14163;-26.142;27.992;2022-07-15T16:45:58;17.97;;;16.13;;
26478;SDS011;14163;-26.142;27.992;2022-07-15T16:48:27;20.40;;;17.93;;
26478;SDS011;14163;-26.142;27.992;2022-07-15T16:50:56;23.47;;;19.00;;
26478;SDS011;14163;-26.142;27.992;2022-07-15T16:53:26;20.20;;;18.10;;
26478;SDS011;14163;-26.142;27.992;2022-07-15T16:55:55;22.03;;;17.97;;
26478;SDS011;14163;-26.142;27.992;2022-07-15T16:58:26;20.97;;;18.63;;
26478;SDS011;14163;-26.142;27.992;2022-07-15T17:00:55;28.60;;;20.57;;
26478;SDS011;14163;-26.142;27.992;2022-07-15T17:03:24;21.50;;;19.37;;
26478;SDS011;14163;-26.142;27.992;2022-07-15T17:05:54;21.67;;;19.57;;